sensor_id;sensor_type;location;lat;lon;timestamp;P1;durP1;ratioP1;P2;durP2;ratioP2
24619;SDS011;12763;55.802;37.404;2023-06-26T00:01:36;17.98;;;10.07;;
24619;SDS011;12763;55.802;37.404;2023-06-26T00:04:05;14.60;;;9.20;;
24619;SDS011;12763;55.802;37.404;2023-06-26T00:06:32;26.92;;;12.27;;
24619;SDS011;12763;55.802;37.404;2023-06-26T00:08:58;19.38;;;11.55;;
24619;SDS011;12763;55.802;37.404;2023-06-26T00:11:24;28.20;;;12.18;;
24619;SDS011;12763;55.802;37.404;2023-06-26T00:13:53;32.22;;;12.38;;
24619;SDS011;12763;55.802;37.404;2023-06-26T00:16:19;29.15;;;13.07;;
24619;SDS011;12763;55.802;37.404;2023-06-26T00:18:45;30.33;;;14.77;;
24619;SDS011;12763;55.802;37.404;2023-06-26T00:21:11;25.55;;;10.93;;
24619;SDS011;12763;55.802;37.404;2023-06-26T00:23:37;30.38;;;13.25;;
24619;SDS011;12763;55.802;37.404;2023-06-26T00:26:04;26.48;;;12.43;;
24619;SDS011;12763;55.802;37.404;2023-06-26T00:28:30;25.27;;;12.15;;
24619;SDS011;12763;55.802;37.404;2023-06-26T00:30:57;33.33;;;12.65;;
24619;SDS011;12763;55.802;37.404;2023-06-26T00:33:23;34.33;;;13.85;;
24619;SDS011;12763;55.802;37.404;2023-06-26T00:35:50;26.25;;;12.10;;
24619;SDS011;12763;55.802;37.404;2023-06-26T00:38:16;24.35;;;10.98;;
24619;SDS011;12763;55.802;37.404;2023-06-26T00:40:43;24.40;;;10.77;;
24619;SDS011;12763;55.802;37.404;2023-06-26T00:43:10;18.02;;;10.98;;
24619;SDS011;12763;55.802;37.404;2023-06-26T00:45:37;21.20;;;10.82;;
24619;SDS011;12763;55.802;37.404;2023-06-26T00:48:03;22.65;;;10.35;;
24619;SDS011;12763;55.802;37.404;2023-06-26T00:50:30;15.80;;;9.85;;
24619;SDS011;12763;55.802;37.404;2023-06-26T00:52:56;21.27;;;10.90;;
24619;SDS011;12763;55.802;37.404;2023-06-26T00:55:26;20.33;;;11.25;;
24619;SDS011;12763;55.802;37.404;2023-06-26T00:57:54;23.33;;;12.23;;
24619;SDS011;12763;55.802;37.404;2023-06-26T01:00:20;23.48;;;10.80;;
24619;SDS011;12763;55.802;37.404;2023-06-26T01:02:47;23.02;;;11.05;;
24619;SDS011;12763;55.802;37.404;2023-06-26T01:05:13;24.80;;;11.85;;
24619;SDS011;12763;55.802;37.404;2023-06-26T01:07:49;21.35;;;11.27;;
24619;SDS011;12763;55.802;37.404;2023-06-26T01:10:17;21.35;;;11.05;;
24619;SDS011;12763;55.802;37.404;2023-06-26T01:12:45;32.85;;;11.52;;
24619;SDS011;12763;55.802;37.404;2023-06-26T01:15:11;19.40;;;11.60;;
24619;SDS011;12763;55.802;37.404;2023-06-26T01:17:37;19.60;;;11.35;;
24619;SDS011;12763;55.802;37.404;2023-06-26T01:20:05;22.27;;;11.25;;
24619;SDS011;12763;55.802;37.404;2023-06-26T01:28:20;25.33;;;11.75;;
24619;SDS011;12763;55.802;37.404;2023-06-26T01:30:49;29.00;;;11.98;;
24619;SDS011;12763;55.802;37.404;2023-06-26T01:33:17;22.98;;;12.90;;
24619;SDS011;12763;55.802;37.404;2023-06-26T01:35:43;21.50;;;11.52;;
24619;SDS011;12763;55.802;37.404;2023-06-26T01:40:43;24.05;;;11.32;;
24619;SDS011;12763;55.802;37.404;2023-06-26T01:43:20;19.27;;;12.50;;
24619;SDS011;12763;55.802;37.404;2023-06-26T01:45:57;18.92;;;12.77;;
24619;SDS011;12763;55.802;37.404;2023-06-26T01:48:28;20.35;;;12.55;;
24619;SDS011;12763;55.802;37.404;2023-06-26T01:51:00;21.50;;;12.07;;
24619;SDS011;12763;55.802;37.404;2023-06-26T01:53:28;24.38;;;13.55;;
24619;SDS011;12763;55.802;37.404;2023-06-26T01:56:08;20.17;;;12.80;;
24619;SDS011;12763;55.802;37.404;2023-06-26T01:58:40;22.77;;;13.60;;
24619;SDS011;12763;55.802;37.404;2023-06-26T02:01:09;21.13;;;12.55;;
24619;SDS011;12763;55.802;37.404;2023-06-26T02:03:35;21.83;;;12.88;;
24619;SDS011;12763;55.802;37.404;2023-06-26T02:06:02;21.20;;;13.43;;
24619;SDS011;12763;55.802;37.404;2023-06-26T02:08:28;25.92;;;13.10;;
24619;SDS011;12763;55.802;37.404;2023-06-26T02:10:56;23.90;;;14.05;;
24619;SDS011;12763;55.802;37.404;2023-06-26T02:13:24;22.58;;;12.50;;
24619;SDS011;12763;55.802;37.404;2023-06-26T02:15:51;31.60;;;15.23;;
24619;SDS011;12763;55.802;37.404;2023-06-26T02:18:18;27.92;;;14.95;;
24619;SDS011;12763;55.802;37.404;2023-06-26T02:20:44;24.58;;;13.93;;
24619;SDS011;12763;55.802;37.404;2023-06-26T02:23:10;31.45;;;15.30;;
24619;SDS011;12763;55.802;37.404;2023-06-26T02:25:36;28.33;;;15.05;;
24619;SDS011;12763;55.802;37.404;2023-06-26T02:28:03;28.02;;;16.67;;
24619;SDS011;12763;55.802;37.404;2023-06-26T02:30:29;28.30;;;14.50;;
24619;SDS011;12763;55.802;37.404;2023-06-26T02:32:59;22.85;;;14.55;;
24619;SDS011;12763;55.802;37.404;2023-06-26T02:35:25;24.73;;;14.32;;
24619;SDS011;12763;55.802;37.404;2023-06-26T02:37:51;32.90;;;18.48;;
24619;SDS011;12763;55.802;37.404;2023-06-26T02:40:17;25.73;;;13.50;;
24619;SDS011;12763;55.802;37.404;2023-06-26T02:42:44;28.27;;;15.10;;
24619;SDS011;12763;55.802;37.404;2023-06-26T02:45:11;28.42;;;15.35;;
24619;SDS011;12763;55.802;37.404;2023-06-26T02:47:37;29.20;;;16.50;;
24619;SDS011;12763;55.802;37.404;2023-06-26T02:50:06;25.27;;;14.05;;
24619;SDS011;12763;55.802;37.404;2023-06-26T02:52:51;26.35;;;15.45;;
24619;SDS011;12763;55.802;37.404;2023-06-26T02:55:20;28.27;;;15.52;;
24619;SDS011;12763;55.802;37.404;2023-06-26T02:57:47;30.13;;;16.83;;
24619;SDS011;12763;55.802;37.404;2023-06-26T03:00:14;30.00;;;16.75;;
24619;SDS011;12763;55.802;37.404;2023-06-26T03:02:47;22.27;;;14.80;;
24619;SDS011;12763;55.802;37.404;2023-06-26T03:05:16;25.10;;;14.93;;
24619;SDS011;12763;55.802;37.404;2023-06-26T03:07:43;33.15;;;16.13;;
24619;SDS011;12763;55.802;37.404;2023-06-26T03:10:10;36.33;;;18.77;;
24619;SDS011;12763;55.802;37.404;2023-06-26T03:12:36;31.75;;;18.77;;
24619;SDS011;12763;55.802;37.404;2023-06-26T03:15:03;25.85;;;16.52;;
24619;SDS011;12763;55.802;37.404;2023-06-26T03:17:30;32.60;;;17.58;;
24619;SDS011;12763;55.802;37.404;2023-06-26T03:20:03;30.65;;;17.50;;
24619;SDS011;12763;55.802;37.404;2023-06-26T03:22:43;30.67;;;17.27;;
24619;SDS011;12763;55.802;37.404;2023-06-26T03:25:09;32.00;;;18.10;;
24619;SDS011;12763;55.802;37.404;2023-06-26T03:27:36;35.42;;;18.80;;
24619;SDS011;12763;55.802;37.404;2023-06-26T03:30:02;38.72;;;20.45;;
24619;SDS011;12763;55.802;37.404;2023-06-26T03:32:30;39.92;;;19.88;;
24619;SDS011;12763;55.802;37.404;2023-06-26T03:34:56;35.05;;;18.42;;
24619;SDS011;12763;55.802;37.404;2023-06-26T03:37:22;37.45;;;18.27;;
24619;SDS011;12763;55.802;37.404;2023-06-26T03:39:49;39.28;;;21.60;;
24619;SDS011;12763;55.802;37.404;2023-06-26T03:42:16;39.33;;;19.67;;
24619;SDS011;12763;55.802;37.404;2023-06-26T03:44:42;36.13;;;20.42;;
24619;SDS011;12763;55.802;37.404;2023-06-26T03:47:08;36.53;;;20.15;;
24619;SDS011;12763;55.802;37.404;2023-06-26T03:49:35;40.15;;;20.80;;
24619;SDS011;12763;55.802;37.404;2023-06-26T03:52:01;42.03;;;22.20;;
24619;SDS011;12763;55.802;37.404;2023-06-26T03:54:28;42.85;;;24.15;;
24619;SDS011;12763;55.802;37.404;2023-06-26T03:56:54;37.97;;;20.25;;
24619;SDS011;12763;55.802;37.404;2023-06-26T03:59:21;41.17;;;23.63;;
24619;SDS011;12763;55.802;37.404;2023-06-26T04:01:47;43.35;;;22.17;;
24619;SDS011;12763;55.802;37.404;2023-06-26T04:04:14;41.03;;;23.15;;
24619;SDS011;12763;55.802;37.404;2023-06-26T04:06:40;42.05;;;23.77;;
24619;SDS011;12763;55.802;37.404;2023-06-26T04:09:06;41.65;;;23.55;;
24619;SDS011;12763;55.802;37.404;2023-06-26T04:11:32;39.72;;;21.73;;
24619;SDS011;12763;55.802;37.404;2023-06-26T04:13:58;57.80;;;24.10;;
24619;SDS011;12763;55.802;37.404;2023-06-26T04:16:25;41.78;;;24.48;;
24619;SDS011;12763;55.802;37.404;2023-06-26T04:18:51;44.53;;;24.23;;
24619;SDS011;12763;55.802;37.404;2023-06-26T04:21:19;40.33;;;22.77;;
24619;SDS011;12763;55.802;37.404;2023-06-26T04:23:45;41.15;;;20.42;;
24619;SDS011;12763;55.802;37.404;2023-06-26T04:26:13;42.30;;;22.95;;
24619;SDS011;12763;55.802;37.404;2023-06-26T04:28:40;38.95;;;22.15;;
24619;SDS011;12763;55.802;37.404;2023-06-26T04:31:07;35.75;;;22.10;;
24619;SDS011;12763;55.802;37.404;2023-06-26T04:33:35;39.85;;;19.73;;
24619;SDS011;12763;55.802;37.404;2023-06-26T04:36:08;47.70;;;21.95;;
24619;SDS011;12763;55.802;37.404;2023-06-26T04:38:34;41.28;;;20.73;;
24619;SDS011;12763;55.802;37.404;2023-06-26T04:41:00;34.00;;;18.88;;
24619;SDS011;12763;55.802;37.404;2023-06-26T04:43:27;32.90;;;19.88;;
24619;SDS011;12763;55.802;37.404;2023-06-26T04:45:53;31.55;;;18.23;;
24619;SDS011;12763;55.802;37.404;2023-06-26T04:48:20;30.17;;;18.98;;
24619;SDS011;12763;55.802;37.404;2023-06-26T04:50:47;31.35;;;16.90;;
24619;SDS011;12763;55.802;37.404;2023-06-26T04:53:22;36.00;;;17.92;;
24619;SDS011;12763;55.802;37.404;2023-06-26T04:55:49;28.70;;;14.32;;
24619;SDS011;12763;55.802;37.404;2023-06-26T04:58:16;25.73;;;15.82;;
24619;SDS011;12763;55.802;37.404;2023-06-26T05:00:43;32.70;;;16.38;;
24619;SDS011;12763;55.802;37.404;2023-06-26T05:03:12;27.58;;;15.85;;
24619;SDS011;12763;55.802;37.404;2023-06-26T05:05:40;26.40;;;15.27;;
24619;SDS011;12763;55.802;37.404;2023-06-26T05:08:40;27.00;;;15.13;;
24619;SDS011;12763;55.802;37.404;2023-06-26T05:10:59;23.20;;;14.57;;
24619;SDS011;12763;55.802;37.404;2023-06-26T05:13:26;25.00;;;13.88;;
24619;SDS011;12763;55.802;37.404;2023-06-26T05:15:52;22.67;;;13.70;;
24619;SDS011;12763;55.802;37.404;2023-06-26T05:18:19;20.67;;;12.93;;
24619;SDS011;12763;55.802;37.404;2023-06-26T05:20:45;21.30;;;13.57;;
24619;SDS011;12763;55.802;37.404;2023-06-26T05:23:11;21.75;;;11.85;;
24619;SDS011;12763;55.802;37.404;2023-06-26T05:25:38;21.85;;;12.63;;
24619;SDS011;12763;55.802;37.404;2023-06-26T05:28:05;16.85;;;11.23;;
24619;SDS011;12763;55.802;37.404;2023-06-26T05:30:34;22.58;;;11.85;;
24619;SDS011;12763;55.802;37.404;2023-06-26T05:33:01;18.33;;;11.75;;
24619;SDS011;12763;55.802;37.404;2023-06-26T05:35:29;17.77;;;10.82;;
24619;SDS011;12763;55.802;37.404;2023-06-26T05:37:57;12.90;;;8.93;;
24619;SDS011;12763;55.802;37.404;2023-06-26T05:40:24;14.50;;;9.48;;
24619;SDS011;12763;55.802;37.404;2023-06-26T05:42:51;18.08;;;11.02;;
24619;SDS011;12763;55.802;37.404;2023-06-26T05:45:18;14.27;;;9.27;;
24619;SDS011;12763;55.802;37.404;2023-06-26T05:47:44;11.48;;;7.28;;
24619;SDS011;12763;55.802;37.404;2023-06-26T05:50:12;13.05;;;7.60;;
24619;SDS011;12763;55.802;37.404;2023-06-26T05:52:38;12.00;;;7.18;;
24619;SDS011;12763;55.802;37.404;2023-06-26T05:55:05;16.58;;;7.88;;
24619;SDS011;12763;55.802;37.404;2023-06-26T05:57:32;12.82;;;8.85;;
24619;SDS011;12763;55.802;37.404;2023-06-26T06:00:01;13.23;;;8.57;;
24619;SDS011;12763;55.802;37.404;2023-06-26T06:02:40;11.45;;;7.35;;
24619;SDS011;12763;55.802;37.404;2023-06-26T06:05:08;8.98;;;6.63;;
24619;SDS011;12763;55.802;37.404;2023-06-26T06:07:35;13.55;;;7.45;;
24619;SDS011;12763;55.802;37.404;2023-06-26T06:10:02;16.30;;;7.88;;
24619;SDS011;12763;55.802;37.404;2023-06-26T06:12:31;10.88;;;7.70;;
24619;SDS011;12763;55.802;37.404;2023-06-26T06:14:57;11.30;;;7.63;;
24619;SDS011;12763;55.802;37.404;2023-06-26T06:17:23;11.65;;;6.75;;
24619;SDS011;12763;55.802;37.404;2023-06-26T06:19:49;14.38;;;6.85;;
24619;SDS011;12763;55.802;37.404;2023-06-26T06:22:16;9.45;;;5.97;;
24619;SDS011;12763;55.802;37.404;2023-06-26T06:24:43;11.63;;;7.05;;
24619;SDS011;12763;55.802;37.404;2023-06-26T06:27:09;10.55;;;6.13;;
24619;SDS011;12763;55.802;37.404;2023-06-26T06:29:35;10.73;;;7.10;;
24619;SDS011;12763;55.802;37.404;2023-06-26T06:32:02;13.15;;;6.40;;
24619;SDS011;12763;55.802;37.404;2023-06-26T06:34:28;9.00;;;6.47;;
24619;SDS011;12763;55.802;37.404;2023-06-26T06:36:54;9.10;;;7.13;;
24619;SDS011;12763;55.802;37.404;2023-06-26T06:39:20;7.88;;;5.70;;
24619;SDS011;12763;55.802;37.404;2023-06-26T06:41:47;11.38;;;6.07;;
24619;SDS011;12763;55.802;37.404;2023-06-26T06:44:13;10.27;;;7.13;;
24619;SDS011;12763;55.802;37.404;2023-06-26T06:46:39;11.57;;;6.57;;
24619;SDS011;12763;55.802;37.404;2023-06-26T06:49:05;11.10;;;6.85;;
24619;SDS011;12763;55.802;37.404;2023-06-26T06:51:32;23.13;;;7.30;;
24619;SDS011;12763;55.802;37.404;2023-06-26T06:53:58;10.52;;;6.13;;
24619;SDS011;12763;55.802;37.404;2023-06-26T06:56:24;15.10;;;6.32;;
24619;SDS011;12763;55.802;37.404;2023-06-26T06:58:50;9.85;;;6.50;;
24619;SDS011;12763;55.802;37.404;2023-06-26T07:01:16;10.60;;;6.90;;
24619;SDS011;12763;55.802;37.404;2023-06-26T07:03:42;9.90;;;6.10;;
24619;SDS011;12763;55.802;37.404;2023-06-26T07:06:08;9.18;;;5.93;;
24619;SDS011;12763;55.802;37.404;2023-06-26T07:08:34;9.35;;;5.80;;
24619;SDS011;12763;55.802;37.404;2023-06-26T07:11:00;10.40;;;5.57;;
24619;SDS011;12763;55.802;37.404;2023-06-26T07:13:27;7.03;;;5.20;;
24619;SDS011;12763;55.802;37.404;2023-06-26T07:15:52;7.82;;;5.57;;
24619;SDS011;12763;55.802;37.404;2023-06-26T07:18:19;9.38;;;5.47;;
24619;SDS011;12763;55.802;37.404;2023-06-26T07:20:44;10.45;;;4.72;;
24619;SDS011;12763;55.802;37.404;2023-06-26T07:23:25;7.95;;;5.88;;
24619;SDS011;12763;55.802;37.404;2023-06-26T07:25:51;7.95;;;5.57;;
24619;SDS011;12763;55.802;37.404;2023-06-26T07:28:16;8.43;;;5.45;;
24619;SDS011;12763;55.802;37.404;2023-06-26T07:30:42;10.70;;;5.32;;
24619;SDS011;12763;55.802;37.404;2023-06-26T07:33:08;7.10;;;5.15;;
24619;SDS011;12763;55.802;37.404;2023-06-26T07:35:34;7.82;;;5.57;;
24619;SDS011;12763;55.802;37.404;2023-06-26T07:38:00;11.15;;;5.97;;
24619;SDS011;12763;55.802;37.404;2023-06-26T07:40:26;6.57;;;4.78;;
24619;SDS011;12763;55.802;37.404;2023-06-26T07:42:52;11.15;;;5.50;;
24619;SDS011;12763;55.802;37.404;2023-06-26T07:45:19;12.18;;;5.55;;
24619;SDS011;12763;55.802;37.404;2023-06-26T07:47:45;8.43;;;4.80;;
24619;SDS011;12763;55.802;37.404;2023-06-26T07:50:11;11.05;;;5.57;;
24619;SDS011;12763;55.802;37.404;2023-06-26T07:52:37;10.40;;;5.57;;
24619;SDS011;12763;55.802;37.404;2023-06-26T07:55:03;13.10;;;5.03;;
24619;SDS011;12763;55.802;37.404;2023-06-26T07:57:30;10.27;;;6.03;;
24619;SDS011;12763;55.802;37.404;2023-06-26T07:59:57;8.50;;;5.25;;
24619;SDS011;12763;55.802;37.404;2023-06-26T08:02:23;8.68;;;5.53;;
24619;SDS011;12763;55.802;37.404;2023-06-26T08:04:49;9.48;;;5.40;;
24619;SDS011;12763;55.802;37.404;2023-06-26T08:07:18;8.48;;;5.32;;
24619;SDS011;12763;55.802;37.404;2023-06-26T08:09:44;8.63;;;5.65;;
24619;SDS011;12763;55.802;37.404;2023-06-26T08:12:10;7.22;;;5.70;;
24619;SDS011;12763;55.802;37.404;2023-06-26T08:14:36;9.80;;;5.57;;
24619;SDS011;12763;55.802;37.404;2023-06-26T08:17:02;8.38;;;5.68;;
24619;SDS011;12763;55.802;37.404;2023-06-26T08:19:28;9.05;;;5.40;;
24619;SDS011;12763;55.802;37.404;2023-06-26T08:21:54;10.43;;;5.80;;
24619;SDS011;12763;55.802;37.404;2023-06-26T08:24:20;7.68;;;5.88;;
24619;SDS011;12763;55.802;37.404;2023-06-26T08:26:46;7.93;;;5.43;;
24619;SDS011;12763;55.802;37.404;2023-06-26T08:29:13;9.63;;;5.72;;
24619;SDS011;12763;55.802;37.404;2023-06-26T08:31:40;11.85;;;5.80;;
24619;SDS011;12763;55.802;37.404;2023-06-26T08:34:07;7.70;;;5.20;;
24619;SDS011;12763;55.802;37.404;2023-06-26T08:36:33;7.20;;;4.85;;
24619;SDS011;12763;55.802;37.404;2023-06-26T08:38:59;7.18;;;5.32;;
24619;SDS011;12763;55.802;37.404;2023-06-26T08:41:25;6.60;;;5.13;;
24619;SDS011;12763;55.802;37.404;2023-06-26T08:43:51;7.63;;;5.13;;
24619;SDS011;12763;55.802;37.404;2023-06-26T08:46:19;8.95;;;5.65;;
24619;SDS011;12763;55.802;37.404;2023-06-26T08:48:49;7.50;;;5.00;;
24619;SDS011;12763;55.802;37.404;2023-06-26T08:51:26;10.52;;;4.95;;
24619;SDS011;12763;55.802;37.404;2023-06-26T08:53:58;7.65;;;4.88;;
24619;SDS011;12763;55.802;37.404;2023-06-26T08:56:31;6.40;;;4.82;;
24619;SDS011;12763;55.802;37.404;2023-06-26T08:59:04;13.07;;;5.50;;
24619;SDS011;12763;55.802;37.404;2023-06-26T09:01:31;6.75;;;5.25;;
24619;SDS011;12763;55.802;37.404;2023-06-26T09:03:58;12.52;;;5.78;;
24619;SDS011;12763;55.802;37.404;2023-06-26T09:06:24;7.30;;;5.30;;
24619;SDS011;12763;55.802;37.404;2023-06-26T09:08:51;7.28;;;5.35;;
24619;SDS011;12763;55.802;37.404;2023-06-26T09:11:17;6.13;;;5.47;;
24619;SDS011;12763;55.802;37.404;2023-06-26T09:13:43;9.48;;;5.82;;
24619;SDS011;12763;55.802;37.404;2023-06-26T09:16:09;9.88;;;5.97;;
24619;SDS011;12763;55.802;37.404;2023-06-26T09:18:35;8.77;;;5.80;;
24619;SDS011;12763;55.802;37.404;2023-06-26T09:21:08;9.68;;;5.85;;
24619;SDS011;12763;55.802;37.404;2023-06-26T09:23:35;13.43;;;6.03;;
24619;SDS011;12763;55.802;37.404;2023-06-26T09:26:02;7.18;;;5.20;;
24619;SDS011;12763;55.802;37.404;2023-06-26T09:28:29;7.25;;;5.03;;
24619;SDS011;12763;55.802;37.404;2023-06-26T09:30:58;9.93;;;6.35;;
24619;SDS011;12763;55.802;37.404;2023-06-26T09:33:26;9.63;;;5.55;;
24619;SDS011;12763;55.802;37.404;2023-06-26T09:35:52;9.00;;;5.60;;
24619;SDS011;12763;55.802;37.404;2023-06-26T09:38:18;7.30;;;5.78;;
24619;SDS011;12763;55.802;37.404;2023-06-26T09:40:44;8.32;;;5.18;;
24619;SDS011;12763;55.802;37.404;2023-06-26T09:43:12;9.07;;;5.80;;
24619;SDS011;12763;55.802;37.404;2023-06-26T09:45:39;17.45;;;5.53;;
24619;SDS011;12763;55.802;37.404;2023-06-26T09:48:06;13.65;;;5.95;;
24619;SDS011;12763;55.802;37.404;2023-06-26T09:50:37;17.50;;;5.47;;
24619;SDS011;12763;55.802;37.404;2023-06-26T09:53:07;9.95;;;5.93;;
24619;SDS011;12763;55.802;37.404;2023-06-26T09:55:40;7.70;;;6.18;;
24619;SDS011;12763;55.802;37.404;2023-06-26T09:58:12;8.93;;;6.18;;
24619;SDS011;12763;55.802;37.404;2023-06-26T10:00:42;14.15;;;6.70;;
24619;SDS011;12763;55.802;37.404;2023-06-26T10:03:10;8.30;;;6.15;;
24619;SDS011;12763;55.802;37.404;2023-06-26T10:05:38;12.05;;;6.63;;
24619;SDS011;12763;55.802;37.404;2023-06-26T10:08:06;10.00;;;6.25;;
24619;SDS011;12763;55.802;37.404;2023-06-26T10:10:33;14.98;;;6.53;;
24619;SDS011;12763;55.802;37.404;2023-06-26T10:13:08;12.13;;;6.13;;
24619;SDS011;12763;55.802;37.404;2023-06-26T10:15:39;8.50;;;6.35;;
24619;SDS011;12763;55.802;37.404;2023-06-26T10:18:08;12.00;;;7.13;;
24619;SDS011;12763;55.802;37.404;2023-06-26T10:20:36;10.48;;;6.97;;
24619;SDS011;12763;55.802;37.404;2023-06-26T10:23:02;10.77;;;6.05;;
24619;SDS011;12763;55.802;37.404;2023-06-26T10:25:31;7.78;;;5.60;;
24619;SDS011;12763;55.802;37.404;2023-06-26T10:27:58;11.60;;;6.05;;
24619;SDS011;12763;55.802;37.404;2023-06-26T10:30:28;11.00;;;5.90;;
24619;SDS011;12763;55.802;37.404;2023-06-26T10:32:57;7.55;;;5.75;;
24619;SDS011;12763;55.802;37.404;2023-06-26T10:35:24;8.55;;;5.55;;
24619;SDS011;12763;55.802;37.404;2023-06-26T10:37:50;12.07;;;7.00;;
24619;SDS011;12763;55.802;37.404;2023-06-26T10:40:26;10.52;;;6.32;;
24619;SDS011;12763;55.802;37.404;2023-06-26T10:43:14;8.52;;;6.22;;
24619;SDS011;12763;55.802;37.404;2023-06-26T10:45:46;8.60;;;6.10;;
24619;SDS011;12763;55.802;37.404;2023-06-26T10:48:17;11.68;;;6.20;;
24619;SDS011;12763;55.802;37.404;2023-06-26T10:50:45;7.53;;;5.53;;
24619;SDS011;12763;55.802;37.404;2023-06-26T10:53:14;10.13;;;6.30;;
24619;SDS011;12763;55.802;37.404;2023-06-26T10:55:49;15.25;;;5.68;;
24619;SDS011;12763;55.802;37.404;2023-06-26T10:58:26;6.57;;;4.63;;
24619;SDS011;12763;55.802;37.404;2023-06-26T11:01:13;10.88;;;5.43;;
24619;SDS011;12763;55.802;37.404;2023-06-26T11:03:49;12.63;;;5.97;;
24619;SDS011;12763;55.802;37.404;2023-06-26T11:06:32;9.70;;;5.20;;
24619;SDS011;12763;55.802;37.404;2023-06-26T11:14:25;7.63;;;5.38;;
24619;SDS011;12763;55.802;37.404;2023-06-26T11:16:52;6.43;;;4.60;;
24619;SDS011;12763;55.802;37.404;2023-06-26T11:19:21;8.73;;;4.68;;
24619;SDS011;12763;55.802;37.404;2023-06-26T11:21:47;8.82;;;5.30;;
24619;SDS011;12763;55.802;37.404;2023-06-26T11:24:13;5.68;;;4.40;;
24619;SDS011;12763;55.802;37.404;2023-06-26T11:26:40;6.38;;;4.75;;
24619;SDS011;12763;55.802;37.404;2023-06-26T11:29:07;7.00;;;4.82;;
24619;SDS011;12763;55.802;37.404;2023-06-26T11:31:34;8.88;;;5.03;;
24619;SDS011;12763;55.802;37.404;2023-06-26T11:34:02;6.57;;;4.90;;
24619;SDS011;12763;55.802;37.404;2023-06-26T11:36:30;7.90;;;4.95;;
24619;SDS011;12763;55.802;37.404;2023-06-26T11:39:00;9.27;;;5.40;;
24619;SDS011;12763;55.802;37.404;2023-06-26T11:41:29;8.93;;;5.47;;
24619;SDS011;12763;55.802;37.404;2023-06-26T11:44:00;8.57;;;5.80;;
24619;SDS011;12763;55.802;37.404;2023-06-26T11:46:27;8.63;;;6.00;;
24619;SDS011;12763;55.802;37.404;2023-06-26T11:48:54;6.88;;;5.55;;
24619;SDS011;12763;55.802;37.404;2023-06-26T11:51:20;14.90;;;5.78;;
24619;SDS011;12763;55.802;37.404;2023-06-26T11:53:46;7.55;;;5.65;;
24619;SDS011;12763;55.802;37.404;2023-06-26T11:56:17;7.70;;;5.80;;
24619;SDS011;12763;55.802;37.404;2023-06-26T11:58:59;9.57;;;6.07;;
24619;SDS011;12763;55.802;37.404;2023-06-26T12:01:40;9.52;;;5.88;;
24619;SDS011;12763;55.802;37.404;2023-06-26T12:04:11;8.88;;;6.07;;
24619;SDS011;12763;55.802;37.404;2023-06-26T12:06:39;7.43;;;5.13;;
24619;SDS011;12763;55.802;37.404;2023-06-26T12:09:07;6.80;;;5.10;;
24619;SDS011;12763;55.802;37.404;2023-06-26T12:11:37;7.70;;;5.25;;
24619;SDS011;12763;55.802;37.404;2023-06-26T12:14:05;7.30;;;5.05;;
24619;SDS011;12763;55.802;37.404;2023-06-26T12:16:33;7.45;;;5.20;;
24619;SDS011;12763;55.802;37.404;2023-06-26T12:19:00;8.93;;;5.35;;
24619;SDS011;12763;55.802;37.404;2023-06-26T12:21:28;5.88;;;5.30;;
24619;SDS011;12763;55.802;37.404;2023-06-26T12:24:04;8.32;;;5.80;;
24619;SDS011;12763;55.802;37.404;2023-06-26T12:26:31;8.27;;;5.00;;
24619;SDS011;12763;55.802;37.404;2023-06-26T12:29:07;9.40;;;5.68;;
24619;SDS011;12763;55.802;37.404;2023-06-26T12:31:34;6.70;;;5.18;;
24619;SDS011;12763;55.802;37.404;2023-06-26T12:34:01;6.95;;;4.85;;
24619;SDS011;12763;55.802;37.404;2023-06-26T12:36:39;9.23;;;5.15;;
24619;SDS011;12763;55.802;37.404;2023-06-26T12:39:08;11.85;;;4.78;;
24619;SDS011;12763;55.802;37.404;2023-06-26T12:41:43;7.50;;;4.97;;
24619;SDS011;12763;55.802;37.404;2023-06-26T12:44:30;8.30;;;4.88;;
24619;SDS011;12763;55.802;37.404;2023-06-26T12:46:59;8.43;;;4.72;;
24619;SDS011;12763;55.802;37.404;2023-06-26T12:49:30;8.18;;;5.18;;
24619;SDS011;12763;55.802;37.404;2023-06-26T12:51:59;5.90;;;4.05;;
24619;SDS011;12763;55.802;37.404;2023-06-26T12:54:27;7.03;;;5.20;;
24619;SDS011;12763;55.802;37.404;2023-06-26T12:56:53;8.93;;;4.97;;
24619;SDS011;12763;55.802;37.404;2023-06-26T12:59:20;7.85;;;4.93;;
24619;SDS011;12763;55.802;37.404;2023-06-26T13:01:46;6.70;;;5.00;;
24619;SDS011;12763;55.802;37.404;2023-06-26T13:04:12;7.57;;;4.60;;
24619;SDS011;12763;55.802;37.404;2023-06-26T13:06:38;9.10;;;5.40;;
24619;SDS011;12763;55.802;37.404;2023-06-26T13:09:04;8.85;;;5.70;;
24619;SDS011;12763;55.802;37.404;2023-06-26T13:11:30;5.90;;;5.00;;
24619;SDS011;12763;55.802;37.404;2023-06-26T13:13:57;6.05;;;4.88;;
24619;SDS011;12763;55.802;37.404;2023-06-26T13:16:23;9.52;;;4.45;;
24619;SDS011;12763;55.802;37.404;2023-06-26T13:18:49;13.45;;;5.10;;
24619;SDS011;12763;55.802;37.404;2023-06-26T13:21:16;7.00;;;4.95;;
24619;SDS011;12763;55.802;37.404;2023-06-26T13:23:43;7.80;;;4.90;;
24619;SDS011;12763;55.802;37.404;2023-06-26T13:26:10;7.13;;;4.90;;
24619;SDS011;12763;55.802;37.404;2023-06-26T13:28:37;7.88;;;5.30;;
24619;SDS011;12763;55.802;37.404;2023-06-26T13:31:03;7.57;;;5.85;;
24619;SDS011;12763;55.802;37.404;2023-06-26T13:33:30;6.75;;;5.15;;
24619;SDS011;12763;55.802;37.404;2023-06-26T13:35:56;8.02;;;5.53;;
24619;SDS011;12763;55.802;37.404;2023-06-26T13:38:24;9.27;;;5.38;;
24619;SDS011;12763;55.802;37.404;2023-06-26T13:40:51;7.95;;;5.38;;
24619;SDS011;12763;55.802;37.404;2023-06-26T13:43:19;7.55;;;5.55;;
24619;SDS011;12763;55.802;37.404;2023-06-26T13:45:46;9.75;;;5.18;;
24619;SDS011;12763;55.802;37.404;2023-06-26T13:48:12;7.95;;;5.65;;
24619;SDS011;12763;55.802;37.404;2023-06-26T13:50:38;8.30;;;5.60;;
24619;SDS011;12763;55.802;37.404;2023-06-26T13:53:04;6.95;;;5.55;;
24619;SDS011;12763;55.802;37.404;2023-06-26T13:55:31;8.55;;;4.88;;
24619;SDS011;12763;55.802;37.404;2023-06-26T13:58:01;6.53;;;4.78;;
24619;SDS011;12763;55.802;37.404;2023-06-26T14:00:31;14.85;;;5.40;;
24619;SDS011;12763;55.802;37.404;2023-06-26T14:02:59;13.27;;;6.90;;
24619;SDS011;12763;55.802;37.404;2023-06-26T14:05:26;11.88;;;5.90;;
24619;SDS011;12763;55.802;37.404;2023-06-26T14:07:52;9.90;;;5.32;;
24619;SDS011;12763;55.802;37.404;2023-06-26T14:10:20;5.50;;;4.55;;
24619;SDS011;12763;55.802;37.404;2023-06-26T14:12:46;8.00;;;4.95;;
24619;SDS011;12763;55.802;37.404;2023-06-26T14:15:12;7.00;;;4.78;;
24619;SDS011;12763;55.802;37.404;2023-06-26T14:17:38;10.27;;;5.72;;
24619;SDS011;12763;55.802;37.404;2023-06-26T14:20:06;9.90;;;5.45;;
24619;SDS011;12763;55.802;37.404;2023-06-26T14:22:39;6.78;;;5.10;;
24619;SDS011;12763;55.802;37.404;2023-06-26T14:25:06;14.23;;;5.43;;
24619;SDS011;12763;55.802;37.404;2023-06-26T14:27:33;8.73;;;5.25;;
24619;SDS011;12763;55.802;37.404;2023-06-26T14:29:59;9.25;;;4.95;;
24619;SDS011;12763;55.802;37.404;2023-06-26T14:32:26;13.35;;;4.75;;
24619;SDS011;12763;55.802;37.404;2023-06-26T14:34:51;8.48;;;5.30;;
24619;SDS011;12763;55.802;37.404;2023-06-26T14:37:17;13.95;;;5.75;;
24619;SDS011;12763;55.802;37.404;2023-06-26T14:39:44;7.38;;;4.70;;